createdAt,value
2018-08-02T00:00:48.626Z,100832.67
2018-08-02T00:02:26.597Z,100735.79
2018-08-02T00:04:02.962Z,100730.93
2018-08-02T00:05:40.501Z,100743.38
2018-08-02T00:07:16.945Z,100704.11
2018-08-02T00:08:53.378Z,100792.06
2018-08-02T00:10:31.488Z,100788.08
2018-08-02T00:12:08.102Z,100786.33
2018-08-02T00:13:44.629Z,100795.28
2018-08-02T00:15:22.587Z,100801.50
2018-08-02T00:17:01.454Z,100855.03
2018-08-02T00:18:38.368Z,100811.69
2018-08-02T00:20:14.902Z,100754.19
2018-08-02T00:21:51.393Z,100655.56
2018-08-02T00:23:27.774Z,100680.13
2018-08-02T00:25:05.899Z,100697.89
2018-08-02T00:26:44.522Z,100745.72
2018-08-02T00:28:22.500Z,100761.73
2018-08-02T00:30:00.400Z,100751.56
2018-08-02T00:31:37.182Z,100597.09
2018-08-02T00:33:14.432Z,100512.49
2018-08-02T00:34:51.826Z,100523.64
2018-08-02T00:36:28.179Z,100496.01
2018-08-02T00:38:05.358Z,100537.81
2018-08-02T00:39:41.766Z,100552.66
2018-08-02T00:41:18.063Z,100475.41
2018-08-02T00:42:54.654Z,100519.55
2018-08-02T00:44:31.914Z,100613.24
2018-08-02T00:46:08.501Z,100722.58
2018-08-02T00:47:45.435Z,100752.05
2018-08-02T00:49:22.166Z,100659.16
2018-08-02T00:50:59.651Z,100686.32
2018-08-02T00:52:36.098Z,100623.52
2018-08-02T00:54:12.414Z,100591.75
2018-08-02T00:55:50.256Z,100583.33
2018-08-02T00:57:26.614Z,100516.58
2018-08-02T00:59:03.843Z,100454.53
2018-08-02T01:00:45.320Z,100477.64
2018-08-02T01:02:23.611Z,100438.44
2018-08-02T01:03:59.948Z,100429.98
2018-08-02T01:05:36.299Z,100379.66
2018-08-02T01:07:13.164Z,100389.09
2018-08-02T01:08:49.782Z,100388.59
2018-08-02T01:10:26.249Z,100348.58
2018-08-02T01:12:02.552Z,100280.94
2018-08-02T01:13:39.309Z,100229.78
2018-08-02T01:15:18.447Z,100172.78
2018-08-02T01:17:11.383Z,100183.83
2018-08-02T01:18:48.602Z,100334.80
2018-08-02T01:20:27.415Z,100330.36
2018-08-02T01:22:03.883Z,100417.60
2018-08-02T01:23:40.339Z,100547.84
2018-08-02T01:25:17.423Z,100651.30
2018-08-02T01:26:53.788Z,100639.28
2018-08-02T01:28:30.643Z,100534.43
2018-08-02T01:30:08.838Z,100402.48
2018-08-02T01:31:46.241Z,100309.55
2018-08-02T01:33:24.451Z,100200.39
2018-08-02T01:35:01.959Z,100206.22
2018-08-02T01:36:38.459Z,100228.03
2018-08-02T01:38:15.434Z,100288.96
2018-08-02T01:39:51.784Z,100243.13
2018-08-02T01:41:28.253Z,100220.93
2018-08-02T01:43:04.665Z,100228.53
2018-08-02T01:44:55.586Z,100273.86
2018-08-02T01:46:32.412Z,100175.65
2018-08-02T01:48:09.188Z,100070.95
2018-08-02T01:49:45.713Z,100034.08
2018-08-02T01:51:22.236Z,100001.69
2018-08-02T01:52:58.720Z,99987.94
2018-08-02T01:54:35.003Z,99991.53
2018-08-02T01:56:11.374Z,99959.49
2018-08-02T01:57:48.067Z,100034.68
2018-08-02T01:59:24.615Z,100099.16
2018-08-02T02:01:03.311Z,100161.39
2018-08-02T02:02:40.374Z,100197.92
2018-08-02T02:04:16.850Z,100148.91
2018-08-02T02:05:53.437Z,100090.73
2018-08-02T02:07:29.718Z,99937.36
2018-08-02T02:09:08.554Z,99745.98
2018-08-02T02:10:45.381Z,99627.19
2018-08-02T02:12:21.932Z,99557.61
2018-08-02T02:13:58.440Z,99492.49
2018-08-02T02:15:34.652Z,99459.20
2018-08-02T02:17:12.200Z,99482.25
2018-08-02T02:18:48.668Z,99468.80
2018-08-02T02:20:25.027Z,99462.28
2018-08-02T02:22:01.478Z,99561.56
2018-08-02T02:23:38.382Z,99667.04
2018-08-02T02:25:16.123Z,99769.19
2018-08-02T02:26:52.425Z,99811.30
2018-08-02T02:28:28.880Z,99900.13
2018-08-02T02:30:08.457Z,99994.73
2018-08-02T02:31:46.620Z,100015.78
2018-08-02T02:33:23.544Z,100047.67
2018-08-02T02:35:00.536Z,100106.07
2018-08-02T02:36:36.991Z,100139.88
2018-08-02T02:38:13.297Z,100116.35
2018-08-02T02:39:49.778Z,100111.52
2018-08-02T02:41:26.284Z,100137.27
2018-08-02T02:43:02.932Z,100192.81
2018-08-02T02:44:39.311Z,100171.52
2018-08-02T02:46:16.121Z,100220.58
2018-08-02T02:47:52.412Z,100219.56
2018-08-02T02:49:29.168Z,100154.69
2018-08-02T02:51:06.997Z,100111.13
2018-08-02T02:52:45.301Z,100084.52
2018-08-02T02:54:22.387Z,100015.14
2018-08-02T02:55:59.519Z,99947.11
2018-08-02T02:57:35.931Z,99809.45
2018-08-02T02:59:13.214Z,99777.94
2018-08-02T03:00:49.844Z,99691.86
2018-08-02T03:02:26.855Z,99651.13
2018-08-02T03:04:03.129Z,99532.81
2018-08-02T03:05:39.734Z,99537.61
2018-08-02T03:07:16.850Z,99609.06
2018-08-02T03:08:53.130Z,99703.59
2018-08-02T03:10:29.412Z,99641.86
2018-08-02T03:12:05.973Z,99532.81
2018-08-02T03:13:42.673Z,99502.72
2018-08-02T03:15:19.351Z,99414.44
2018-08-02T03:16:55.682Z,99343.58
2018-08-02T03:18:32.060Z,99358.34
2018-08-02T03:20:09.004Z,99452.66
2018-08-02T03:21:45.359Z,99392.86
2018-08-02T03:23:21.766Z,99404.46
2018-08-02T03:24:58.307Z,99415.41
2018-08-02T03:26:37.292Z,99446.03
2018-08-02T03:28:13.912Z,99458.09
2018-08-02T03:29:50.347Z,99421.22
2018-08-02T03:31:26.851Z,99434.14
2018-08-02T03:33:03.654Z,99447.47
2018-08-02T03:34:40.074Z,99446.11
2018-08-02T03:36:16.453Z,99468.82
2018-08-02T03:37:52.789Z,99559.58
2018-08-02T03:39:29.425Z,99718.76
2018-08-02T03:41:05.783Z,99830.20
2018-08-02T03:42:43.046Z,99896.31
2018-08-02T03:44:19.350Z,99898.27
2018-08-02T03:45:57.840Z,99883.92
2018-08-02T03:47:34.174Z,99858.75
2018-08-02T03:49:10.392Z,99860.11
2018-08-02T03:50:46.653Z,99859.23
2018-08-02T03:52:23.281Z,99939.20
2018-08-02T03:53:59.609Z,100008.06
2018-08-02T03:55:35.897Z,99999.53
2018-08-02T03:57:12.230Z,99985.92
2018-08-02T03:58:48.890Z,99963.68
2018-08-02T04:00:25.478Z,99952.16
2018-08-02T04:02:01.795Z,99887.77
2018-08-02T04:03:38.026Z,99867.88
2018-08-02T04:05:14.640Z,99866.14
2018-08-02T04:06:50.926Z,99839.95
2018-08-02T04:08:28.146Z,99778.20
2018-08-02T04:10:04.633Z,99714.31
2018-08-02T04:11:41.726Z,99510.38
2018-08-02T04:13:18.058Z,99493.23
2018-08-02T04:14:54.335Z,99564.15
2018-08-02T04:16:30.681Z,99692.59
2018-08-02T04:18:07.289Z,99776.96
2018-08-02T04:19:43.557Z,99866.14
2018-08-02T04:21:19.835Z,99922.63
2018-08-02T04:22:56.184Z,99924.36
2018-08-02T04:24:32.912Z,99940.03
2018-08-02T04:26:09.203Z,100025.85
2018-08-02T04:27:45.450Z,99977.77
2018-08-02T04:29:21.769Z,99858.36
2018-08-02T04:30:58.818Z,99816.63
2018-08-02T04:32:35.168Z,99789.19
2018-08-02T04:34:11.520Z,99769.53
2018-08-02T04:35:47.888Z,99727.89
2018-08-02T04:37:25.610Z,99750.14
2018-08-02T04:39:01.946Z,99775.34
2018-08-02T04:40:38.315Z,99805.11
2018-08-02T04:42:14.725Z,99838.96
2018-08-02T04:43:51.530Z,99839.94
2018-08-02T04:45:28.433Z,99817.59
2018-08-02T04:47:07.802Z,99869.61
2018-08-02T04:48:44.775Z,99977.87
2018-08-02T04:50:21.558Z,100128.80
2018-08-02T04:51:57.936Z,100285.91
2018-08-02T04:53:34.275Z,100502.53
2018-08-02T04:55:12.979Z,100540.35
2018-08-02T04:56:50.521Z,100509.73
2018-08-02T04:58:29.182Z,100691.88
2018-08-02T05:00:08.238Z,100652.03
2018-08-02T05:01:46.654Z,100782.39
2018-08-02T05:03:25.097Z,100885.16
2018-08-02T05:05:02.434Z,100712.36
2018-08-02T05:06:38.743Z,100654.48
2018-08-02T05:08:16.248Z,100646.94
2018-08-02T05:09:53.783Z,100502.75
2018-08-02T05:11:30.872Z,100416.46
2018-08-02T05:13:07.206Z,100420.44
2018-08-02T05:14:43.566Z,100384.63
2018-08-02T05:16:21.790Z,100149.58
2018-08-02T05:17:59.221Z,100048.70
2018-08-02T05:19:41.302Z,100003.81
2018-08-02T05:21:19.980Z,100044.63
2018-08-02T05:22:58.504Z,100064.19
2018-08-02T05:24:38.264Z,100129.65
2018-08-02T05:26:15.393Z,100187.95
2018-08-02T05:27:51.764Z,100290.70
2018-08-02T05:29:29.575Z,100517.52
2018-08-02T05:31:06.938Z,100871.09
2018-08-02T05:32:43.190Z,101046.36
2018-08-02T05:34:19.641Z,101072.73
2018-08-02T05:35:57.049Z,100950.12
2018-08-02T05:37:33.365Z,100894.82
2018-08-02T05:39:13.234Z,100917.67
2018-08-02T05:40:50.987Z,100683.28
2018-08-02T05:42:27.346Z,100644.04
2018-08-02T05:44:05.129Z,100694.92
2018-08-02T05:45:48.725Z,100706.49
2018-08-02T05:47:25.158Z,100858.36
2018-08-02T05:49:01.947Z,101048.81
2018-08-02T05:50:39.517Z,100920.40
2018-08-02T05:52:31.879Z,100865.08
2018-08-02T05:54:08.445Z,100814.15
2018-08-02T05:55:44.894Z,100834.16
2018-08-02T05:57:21.683Z,100851.75
2018-08-02T05:58:59.647Z,100979.45
2018-08-02T06:00:36.992Z,100990.61
2018-08-02T06:02:13.653Z,101015.85
2018-08-02T06:03:50.914Z,101082.39
2018-08-02T06:05:33.746Z,101114.62
2018-08-02T06:07:10.779Z,101159.92
2018-08-02T06:08:47.040Z,101134.38
2018-08-02T06:10:23.468Z,101049.78
2018-08-02T06:11:59.843Z,101127.27
2018-08-02T06:13:36.494Z,101136.23
2018-08-02T06:15:16.027Z,101049.92
2018-08-02T06:16:54.882Z,101056.61
2018-08-02T06:18:31.228Z,101100.88
2018-08-02T06:20:08.533Z,101194.98
2018-08-02T06:21:44.913Z,101455.20
2018-08-02T06:23:21.277Z,101526.04
2018-08-02T06:24:57.868Z,101592.09
2018-08-02T06:26:34.689Z,101902.05
2018-08-02T06:28:11.234Z,102095.83
2018-08-02T06:29:48.626Z,101979.82
2018-08-02T06:32:32.425Z,102029.31
2018-08-02T06:34:16.299Z,101924.20
2018-08-02T06:35:52.675Z,101819.48
2018-08-02T06:37:33.965Z,101700.00
2018-08-02T06:39:15.310Z,101509.27
2018-08-02T06:40:52.953Z,101390.47
2018-08-02T06:42:29.448Z,101426.75
2018-08-02T06:44:06.926Z,101516.50
2018-08-02T06:45:45.187Z,101647.08
2018-08-02T06:47:22.740Z,101975.05
2018-08-02T06:48:59.810Z,101935.91
2018-08-02T06:50:36.213Z,101912.61
2018-08-02T06:52:13.177Z,102143.80
2018-08-02T06:53:50.647Z,102335.70
2018-08-02T06:55:27.614Z,102218.05
2018-08-02T06:57:22.390Z,102267.33
2018-08-02T06:58:59.986Z,102012.52
2018-08-02T07:00:36.643Z,102095.39
2018-08-02T07:02:15.310Z,102350.58
2018-08-02T07:03:53.091Z,102437.25
2018-08-02T07:05:29.992Z,102485.49
2018-08-02T07:07:06.482Z,102473.75
2018-08-02T07:08:42.854Z,102261.05
2018-08-02T07:10:20.724Z,102151.63
2018-08-02T07:11:58.816Z,102157.52
2018-08-02T07:13:40.383Z,102300.73
2018-08-02T07:15:17.768Z,102248.92
2018-08-02T07:16:54.272Z,102075.10
2018-08-02T07:18:32.670Z,102291.31
2018-08-02T07:20:10.252Z,102574.37
2018-08-02T07:21:46.699Z,102818.26
2018-08-02T07:23:25.840Z,103033.53
2018-08-02T07:25:03.440Z,103083.30
2018-08-02T07:26:41.512Z,102814.22
2018-08-02T07:28:19.404Z,102552.78
2018-08-02T07:29:56.638Z,102416.66
2018-08-02T07:31:37.796Z,102638.55
2018-08-02T07:33:14.715Z,102830.05
2018-08-02T07:34:50.970Z,102995.96
2018-08-02T07:36:27.547Z,103103.16
2018-08-02T07:38:05.917Z,103200.54
2018-08-02T07:40:08.193Z,103245.33
2018-08-02T07:41:47.960Z,103296.12
2018-08-02T07:43:26.893Z,103097.66
2018-08-02T07:45:07.149Z,103133.08
2018-08-02T07:46:46.200Z,102931.38
2018-08-02T07:48:23.744Z,102875.23
2018-08-02T07:50:01.219Z,102759.60
2018-08-02T07:51:37.665Z,102608.72
2018-08-02T07:53:20.024Z,102582.61
2018-08-02T07:54:57.239Z,102843.11
2018-08-02T07:56:37.510Z,103167.88
2018-08-02T07:58:29.093Z,103288.74
2018-08-02T08:00:09.135Z,103376.22
2018-08-02T08:01:46.762Z,103512.62
2018-08-02T08:03:24.625Z,103553.95
2018-08-02T08:05:04.534Z,103623.52
2018-08-02T08:06:41.753Z,103528.11
2018-08-02T08:08:19.651Z,103488.20
2018-08-02T08:09:55.933Z,103412.89
2018-08-02T08:11:33.879Z,103286.39
2018-08-02T08:13:11.514Z,103202.20
2018-08-02T08:14:50.544Z,103088.52
2018-08-02T08:16:29.513Z,103109.68
2018-08-02T08:18:05.984Z,103211.96
2018-08-02T08:19:42.518Z,103220.63
2018-08-02T08:21:20.504Z,103304.83
2018-08-02T08:22:57.782Z,103406.41
2018-08-02T08:24:34.143Z,103455.30
2018-08-02T08:26:14.315Z,103462.52
2018-08-02T08:27:51.657Z,103475.20
2018-08-02T08:29:32.803Z,103409.48
2018-08-02T08:31:13.677Z,103311.92
2018-08-02T08:32:51.805Z,103270.36
2018-08-02T08:34:31.420Z,103221.84
2018-08-02T08:36:07.859Z,102968.45
2018-08-02T08:37:46.471Z,102987.45
2018-08-02T08:39:23.993Z,103161.48
2018-08-02T08:41:01.518Z,103257.39
2018-08-02T08:42:37.950Z,103258.37
2018-08-02T08:44:15.126Z,103135.20
2018-08-02T08:45:54.890Z,103286.80
2018-08-02T08:47:32.621Z,103298.55
2018-08-02T08:49:09.973Z,103359.77
2018-08-02T08:50:49.783Z,103414.52
2018-08-02T08:52:26.403Z,103500.19
2018-08-02T08:54:03.199Z,103535.19
2018-08-02T08:55:39.494Z,103555.59
2018-08-02T08:57:17.205Z,103663.56
2018-08-02T08:59:09.802Z,103689.91
2018-08-02T09:00:47.285Z,103750.61
2018-08-02T09:02:27.923Z,103727.91
2018-08-02T09:04:04.889Z,103651.63
2018-08-02T09:05:48.207Z,103673.43
2018-08-02T09:07:29.297Z,103667.51
2018-08-02T09:09:10.423Z,103612.56
2018-08-02T09:10:47.793Z,103610.69
2018-08-02T09:12:26.518Z,103645.14
2018-08-02T09:14:04.216Z,103659.23
2018-08-02T09:15:43.796Z,103633.37
2018-08-02T09:17:22.758Z,103634.67
2018-08-02T09:20:58.111Z,103668.65
2018-08-02T09:22:40.036Z,103638.66
2018-08-02T09:24:19.779Z,103511.19
2018-08-02T09:25:56.258Z,103287.17
2018-08-02T09:27:35.432Z,103306.69
2018-08-02T09:29:13.516Z,103487.42
2018-08-02T09:30:57.026Z,103458.35
2018-08-02T09:34:16.989Z,103358.92
2018-08-02T09:36:14.032Z,103356.36
2018-08-02T09:38:00.888Z,103371.64
2018-08-02T09:39:39.441Z,103355.27
2018-08-02T09:41:17.757Z,103339.42
2018-08-02T09:42:56.651Z,103313.61
2018-08-02T09:44:34.486Z,103028.48
2018-08-02T09:46:15.652Z,103167.25
2018-08-02T09:47:55.794Z,103267.83
2018-08-02T09:49:32.664Z,103279.54
2018-08-02T09:51:09.120Z,103341.13
2018-08-02T09:52:45.882Z,103415.42
2018-08-02T09:54:23.402Z,103449.31
2018-08-02T09:56:01.303Z,103484.34
2018-08-02T09:57:38.481Z,103427.55
2018-08-02T09:59:15.832Z,103385.83
2018-08-02T10:01:02.268Z,103351.86
2018-08-02T10:04:25.354Z,103335.01
2018-08-02T10:06:16.906Z,103330.47
2018-08-02T10:08:09.974Z,103355.31
2018-08-02T10:09:49.254Z,103323.70
2018-08-02T10:11:30.520Z,103325.77
2018-08-02T10:13:18.655Z,103299.06
2018-08-02T10:15:00.986Z,103175.45
2018-08-02T10:17:12.372Z,103244.70
2018-08-02T10:18:49.354Z,103313.45
2018-08-02T10:20:26.514Z,103302.02
2018-08-02T10:22:19.808Z,103310.29
2018-08-02T10:23:58.957Z,103307.05
2018-08-02T10:25:36.262Z,103138.16
2018-08-02T10:27:13.539Z,102949.45
2018-08-02T10:28:51.201Z,102892.03
2018-08-02T10:30:37.710Z,103037.59
2018-08-02T10:32:16.185Z,103303.40
2018-08-02T10:33:54.305Z,103512.70
2018-08-02T10:35:30.789Z,103546.25
2018-08-02T10:37:07.257Z,103466.55
2018-08-02T10:38:45.437Z,103510.91
2018-08-02T10:40:27.918Z,103504.10
2018-08-02T10:42:06.327Z,103387.08
2018-08-02T10:43:44.497Z,103352.99
2018-08-02T10:45:22.959Z,103367.95
2018-08-02T10:47:02.284Z,103484.11
2018-08-02T10:48:38.706Z,103569.33
2018-08-02T10:50:17.414Z,103497.61
2018-08-02T10:51:58.444Z,103391.82
2018-08-02T10:53:37.123Z,103390.53
2018-08-02T10:55:13.505Z,103425.06
2018-08-02T10:56:51.522Z,103362.36
2018-08-02T10:58:28.540Z,102916.03
2018-08-02T11:00:10.798Z,102849.11
2018-08-02T11:01:52.880Z,102953.42
2018-08-02T11:03:31.706Z,103069.78
2018-08-02T11:05:10.684Z,103337.34
2018-08-02T11:06:48.515Z,103502.77
2018-08-02T11:08:27.452Z,103620.67
2018-08-02T11:10:06.409Z,103611.58
2018-08-02T11:11:43.481Z,103553.47
2018-08-02T11:13:21.644Z,103523.48
2018-08-02T11:15:17.204Z,103450.92
2018-08-02T11:16:53.640Z,103484.55
2018-08-02T11:18:31.618Z,103446.79
2018-08-02T11:20:09.526Z,103403.32
2018-08-02T11:21:48.590Z,103263.67
2018-08-02T11:23:26.443Z,103277.25
2018-08-02T11:25:05.997Z,103180.36
2018-08-02T11:26:43.746Z,103241.39
2018-08-02T11:28:21.786Z,103190.20
2018-08-02T11:29:59.556Z,103180.67
2018-08-02T11:31:36.154Z,103176.14
2018-08-02T11:33:14.768Z,103346.33
2018-08-02T11:34:54.298Z,103495.50
2018-08-02T11:36:40.902Z,103656.55
2018-08-02T11:38:18.861Z,103754.98
2018-08-02T11:39:59.280Z,103758.64
2018-08-02T11:41:36.655Z,103785.00
2018-08-02T11:43:13.087Z,103819.00
2018-08-02T11:44:51.676Z,103915.36
2018-08-02T11:46:31.422Z,103944.02
2018-08-02T11:48:07.870Z,103906.26
2018-08-02T11:49:45.290Z,103889.76
2018-08-02T11:51:22.274Z,103937.60
2018-08-02T11:53:00.313Z,103955.21
2018-08-02T11:54:37.443Z,103945.21
2018-08-02T11:56:17.731Z,103940.58
2018-08-02T11:57:57.074Z,103960.55
2018-08-02T11:59:36.310Z,103962.73
2018-08-02T12:01:16.645Z,103920.61
2018-08-02T12:02:55.780Z,103912.33
2018-08-02T12:15:54.440Z,104926.56
2018-08-02T12:17:36.245Z,104874.91
2018-08-02T12:19:20.410Z,104504.47
2018-08-02T12:21:03.557Z,104190.10
2018-08-02T12:22:42.299Z,103870.66
2018-08-02T12:24:19.754Z,103967.91
2018-08-02T12:25:57.818Z,104092.95
2018-08-02T12:29:21.143Z,104108.22
2018-08-02T12:30:59.516Z,104102.69
2018-08-02T12:32:35.863Z,104080.84
2018-08-02T12:34:14.563Z,104040.36
2018-08-02T12:35:57.090Z,104012.50
2018-08-02T12:37:34.152Z,104022.98
2018-08-02T12:39:14.158Z,104005.66
2018-08-02T12:41:07.533Z,104059.77
2018-08-02T12:42:44.708Z,104088.78
2018-08-02T12:44:21.061Z,104065.11
2018-08-02T12:46:29.173Z,104095.58
2018-08-02T12:48:08.787Z,103989.08
2018-08-02T12:50:13.497Z,104028.16
2018-08-02T12:51:50.447Z,103985.33
2018-08-02T12:53:27.577Z,103864.78
2018-08-02T12:55:04.726Z,103823.90
2018-08-02T12:56:42.127Z,103833.28
2018-08-02T12:58:19.564Z,103875.19
2018-08-02T12:59:55.938Z,103899.25
2018-08-02T13:01:33.780Z,103937.31
2018-08-02T13:03:11.943Z,103987.33
2018-08-02T13:04:49.442Z,104095.15
2018-08-02T13:06:25.883Z,104156.04
2018-08-02T13:08:04.145Z,104208.11
2018-08-02T13:09:44.706Z,104152.30
2018-08-02T13:11:29.149Z,104097.79
2018-08-02T13:13:06.640Z,104083.59
2018-08-02T13:14:47.144Z,104078.06
2018-08-02T13:16:25.647Z,104073.42
2018-08-02T13:18:07.867Z,104125.80
2018-08-02T13:19:46.744Z,104114.81
2018-08-02T13:21:23.888Z,104062.93
2018-08-02T13:23:01.912Z,104012.31
2018-08-02T13:24:39.410Z,104024.16
2018-08-02T13:26:16.454Z,103978.59
2018-08-02T13:27:54.353Z,103973.14
2018-08-02T13:29:30.690Z,103933.12
2018-08-02T13:31:09.153Z,103873.11
2018-08-02T13:32:47.102Z,103869.45
2018-08-02T13:34:23.470Z,103904.34
2018-08-02T13:36:01.917Z,103911.09
2018-08-02T13:37:39.947Z,103879.25
2018-08-02T13:39:16.336Z,103847.42
2018-08-02T13:40:52.735Z,103829.25
2018-08-02T13:42:40.406Z,103870.95
2018-08-02T13:44:28.810Z,103938.17
2018-08-02T13:46:07.972Z,104042.27
2018-08-02T13:47:44.524Z,104077.67
2018-08-02T13:49:30.248Z,103997.23
2018-08-02T13:51:10.625Z,103858.92
2018-08-02T13:52:52.443Z,103837.09
2018-08-02T13:54:47.311Z,103903.40
2018-08-02T13:56:25.002Z,103995.23
2018-08-02T13:58:02.329Z,104012.40
2018-08-02T13:59:39.437Z,104019.23
2018-08-02T14:01:16.461Z,103788.24
2018-08-02T14:02:52.588Z,103838.27
2018-08-02T14:04:29.785Z,103835.42
2018-08-02T14:06:07.265Z,103875.83
2018-08-02T14:07:51.037Z,103946.71
2018-08-02T14:09:30.054Z,103982.14
2018-08-02T14:11:08.221Z,103948.01
2018-08-02T14:12:45.490Z,104001.17
2018-08-02T14:14:25.980Z,104025.30
2018-08-02T14:16:02.638Z,103900.67
2018-08-02T14:17:39.878Z,103861.11
2018-08-02T14:19:16.350Z,103931.91
2018-08-02T14:20:55.458Z,103957.81
2018-08-02T14:22:33.318Z,103992.87
2018-08-02T14:24:12.602Z,103966.43
2018-08-02T14:25:51.385Z,103912.74
2018-08-02T14:27:30.958Z,103829.92
2018-08-02T14:29:08.237Z,103817.66
2018-08-02T14:30:48.546Z,103871.80
2018-08-02T14:32:26.590Z,103822.61
2018-08-02T14:34:03.776Z,103834.36
2018-08-02T14:35:40.176Z,103932.02
2018-08-02T14:37:18.000Z,104043.12
2018-08-02T14:38:55.130Z,104063.51
2018-08-02T14:40:32.472Z,104122.20
2018-08-02T14:43:14.476Z,104205.91
2018-08-02T14:44:53.429Z,104046.13
2018-08-02T14:46:30.831Z,103969.75
2018-08-02T14:48:08.663Z,104001.98
2018-08-02T14:49:47.366Z,104110.23
2018-08-02T14:51:23.931Z,104105.51
2018-08-02T14:53:01.380Z,104100.05
2018-08-02T14:54:39.942Z,104099.56
2018-08-02T14:56:18.566Z,104079.09
2018-08-02T14:57:58.657Z,104035.95
2018-08-02T14:59:46.445Z,103943.47
2018-08-02T15:01:23.651Z,103871.14
2018-08-02T15:03:02.966Z,103882.03
2018-08-02T15:04:41.935Z,103917.56
2018-08-02T15:06:21.844Z,103928.34
2018-08-02T15:08:00.031Z,103925.58
2018-08-02T15:09:38.602Z,103913.30
2018-08-02T15:11:15.771Z,103918.34
2018-08-02T15:12:58.460Z,103596.63
2018-08-02T15:14:36.563Z,103617.46
2018-08-02T15:16:14.642Z,103766.82
2018-08-02T15:17:56.377Z,103864.45
2018-08-02T15:19:32.727Z,103929.92
2018-08-02T15:21:10.521Z,103839.86
2018-08-02T15:22:47.775Z,103788.07
2018-08-02T15:24:25.057Z,103693.52
2018-08-02T15:26:01.456Z,103666.72
2018-08-02T15:27:43.917Z,103742.11
2018-08-02T15:29:29.220Z,103820.67
2018-08-02T15:31:09.526Z,103826.11
2018-08-02T15:32:45.977Z,103866.04
2018-08-02T15:34:27.539Z,103877.86
2018-08-02T15:36:03.876Z,103848.75
2018-08-02T15:37:42.207Z,103885.06
2018-08-02T15:39:19.865Z,103895.14
2018-08-02T15:41:05.574Z,103928.25
2018-08-02T15:42:43.805Z,103920.47
2018-08-02T15:44:29.294Z,103793.09
2018-08-02T15:46:08.718Z,103785.91
2018-08-02T15:47:46.194Z,103768.59
2018-08-02T15:49:24.214Z,103777.20
2018-08-02T15:51:02.958Z,103723.56
2018-08-02T15:52:42.503Z,103754.48
2018-08-02T15:54:19.014Z,103756.27
2018-08-02T15:55:56.130Z,103739.36
2018-08-02T15:57:34.722Z,103665.39
2018-08-02T15:59:11.073Z,103645.35
2018-08-02T16:00:48.449Z,103668.55
2018-08-02T16:02:25.876Z,103642.19
2018-08-02T16:04:06.527Z,103647.10
2018-08-02T16:05:52.869Z,103617.17
2018-08-02T16:07:47.977Z,103620.22
2018-08-02T16:09:26.323Z,103654.73
2018-08-02T16:11:05.431Z,103746.96
2018-08-02T16:12:43.380Z,103793.70
2018-08-02T16:14:20.513Z,103800.03
2018-08-02T16:19:19.029Z,103882.23
2018-08-02T16:20:56.602Z,103939.58
2018-08-02T16:22:35.366Z,104006.75
2018-08-02T16:24:12.755Z,104001.79
2018-08-02T16:25:49.594Z,103961.34
2018-08-02T16:27:29.551Z,103921.67
2018-08-02T16:29:07.353Z,103813.57
2018-08-02T16:30:44.665Z,103725.73
2018-08-02T16:32:23.413Z,103636.36
2018-08-02T16:34:01.574Z,103633.59
2018-08-02T16:35:40.251Z,103608.12
2018-08-02T16:37:16.199Z,103539.97
2018-08-02T16:38:53.530Z,103476.04
2018-08-02T16:40:32.141Z,103427.11
2018-08-02T16:42:10.782Z,103433.80
2018-08-02T16:43:50.885Z,103455.72
2018-08-02T16:45:29.125Z,103401.17
2018-08-02T16:47:05.752Z,103431.56
2018-08-02T16:48:42.489Z,103426.53
2018-08-02T16:50:18.423Z,103479.20
2018-08-02T16:51:54.759Z,103534.44
2018-08-02T16:53:31.847Z,103542.55
2018-08-02T16:55:09.797Z,103566.14
2018-08-02T16:56:45.879Z,103596.58
2018-08-02T16:58:21.796Z,103623.70
2018-08-02T16:59:59.350Z,103599.26
2018-08-02T17:01:38.449Z,103559.72
2018-08-02T17:03:14.365Z,103535.73
2018-08-02T17:04:51.975Z,103516.70
2018-08-02T17:06:28.343Z,103486.70
2018-08-02T17:08:06.007Z,103493.02
2018-08-02T17:09:44.732Z,103529.72
2018-08-02T17:11:22.750Z,103509.30
2018-08-02T17:12:59.341Z,103501.19
2018-08-02T17:14:38.772Z,103504.26
2018-08-02T17:16:15.502Z,103323.33
2018-08-02T17:17:54.396Z,103412.23
2018-08-02T17:19:32.552Z,103483.93
2018-08-02T17:21:10.608Z,103455.62
2018-08-02T17:22:47.206Z,103393.08
2018-08-02T17:24:27.185Z,103396.73
2018-08-02T17:26:04.485Z,103373.07
2018-08-02T17:27:47.522Z,103328.15
2018-08-02T17:29:26.693Z,103310.52
2018-08-02T17:31:09.898Z,103335.36
2018-08-02T17:32:47.526Z,103347.69
2018-08-02T17:34:24.763Z,103351.22
2018-08-02T17:36:02.505Z,103353.48
2018-08-02T17:37:39.888Z,103384.30
2018-08-02T17:39:20.542Z,103393.88
2018-08-02T17:40:59.306Z,103375.22
2018-08-02T17:42:50.318Z,103401.55
2018-08-02T17:44:28.224Z,103406.58
2018-08-02T17:46:06.382Z,103330.81
2018-08-02T17:47:45.942Z,103218.26
2018-08-02T17:49:22.706Z,103196.68
2018-08-02T17:50:59.707Z,103184.88
2018-08-02T17:52:39.567Z,103149.02
2018-08-02T17:54:16.618Z,103105.95
2018-08-02T17:55:54.136Z,103092.74
2018-08-02T17:57:32.207Z,103124.55
2018-08-02T17:59:11.336Z,103113.22
2018-08-02T18:00:49.078Z,103141.23
2018-08-02T18:02:25.554Z,103186.04
2018-08-02T18:04:03.436Z,103210.20
2018-08-02T18:05:42.678Z,103188.30
2018-08-02T18:07:20.842Z,103221.02
2018-08-02T18:08:59.797Z,103135.31
2018-08-02T18:10:37.755Z,103044.31
2018-08-02T18:12:20.703Z,103020.39
2018-08-02T18:13:57.129Z,103044.70
2018-08-02T18:15:35.246Z,103053.34
2018-08-02T18:17:11.873Z,103068.23
2018-08-02T18:18:51.280Z,103077.27
2018-08-02T18:20:31.295Z,103038.39
2018-08-02T18:22:08.985Z,103040.17
2018-08-02T18:23:45.978Z,103065.97
2018-08-02T18:25:23.472Z,103059.56
2018-08-02T18:27:01.352Z,103087.63
2018-08-02T18:28:39.323Z,103116.19
2018-08-02T18:30:19.601Z,103127.52
2018-08-02T18:31:58.707Z,103134.73
2018-08-02T18:33:36.597Z,103094.03
2018-08-02T18:35:14.696Z,103074.51
2018-08-02T18:36:51.848Z,103067.34
2018-08-02T18:38:29.380Z,103083.09
2018-08-02T18:40:06.910Z,103129.30
2018-08-02T18:41:43.518Z,103133.74
2018-08-02T18:44:55.436Z,103153.63
2018-08-02T18:46:31.722Z,103169.57
2018-08-02T18:48:15.509Z,103200.72
2018-08-02T18:49:55.471Z,103188.12
2018-08-02T18:51:38.643Z,103171.34
2018-08-02T18:53:18.048Z,103163.95
2018-08-02T18:54:55.528Z,103160.53
2018-08-02T18:56:32.369Z,103178.06
2018-08-02T18:58:12.513Z,103140.02
2018-08-02T18:59:51.619Z,103108.80
2018-08-02T19:01:29.009Z,103108.70
2018-08-02T19:03:05.373Z,103086.12
2018-08-02T19:04:43.239Z,103070.77
2018-08-02T19:07:50.047Z,103085.62
2018-08-02T19:09:27.286Z,103128.09
2018-08-02T19:11:04.128Z,103138.55
2018-08-02T19:12:41.634Z,103122.30
2018-08-02T19:14:23.566Z,103092.33